Time;durP1;ratioP1;P1;durP2;ratioP2;P2;SDS_P1;SDS_P2;PMS_P1;PMS_P2;Temp;Humidity;BMP_temperature;BMP_pressure;BME280_temperature;BME280_humidity;BME280_pressure;Samples;Min_cycle;Max_cycle;Signal;HPM_P1;HPM_P2
2022/05/30 00:02:17;;;;;;;;;;;12.30;99.90;;;;;;2602124;54;19949;31
2022/05/30 00:04:52;;;;;;;;;;;12.30;99.90;;;;;;2603064;54;20006;31
2022/05/30 00:07:26;;;;;;;;;;;12.20;99.90;;;;;;2602611;54;19997;31
2022/05/30 00:10:02;;;;;;;;;;;12.20;99.90;;;;;;2621673;46;19935;31
2022/05/30 00:12:39;;;;;;;;;;;12.20;99.90;;;;;;2602295;54;19950;31
2022/05/30 00:15:16;;;;;;;;;;;12.20;99.90;;;;;;2621518;47;19957;31
2022/05/30 00:17:54;;;;;;;;;;;12.20;99.90;;;;;;2602315;54;19935;31
2022/05/30 00:20:28;;;;;;;;;;;12.10;99.90;;;;;;2621488;47;19977;31
2022/05/30 00:23:03;;;;;;;;;;;12.20;99.90;;;;;;2621428;47;20001;31
2022/05/30 00:25:43;;;;;;;;;;;12.20;99.90;;;;;;2602767;54;20765;31
2022/05/30 00:28:17;;;;;;;;;;;12.20;99.90;;;;;;2621453;47;20666;31
2022/05/30 00:30:54;;;;;;;;;;;12.30;99.90;;;;;;2621522;47;19936;31
2022/05/30 00:33:31;;;;;;;;;;;12.20;99.90;;;;;;2602975;54;20742;31
2022/05/30 00:36:07;;;;;;;;;;;12.20;99.90;;;;;;2602060;54;19942;31
2022/05/30 00:38:46;;;;;;;;;;;12.20;99.90;;;;;;2602785;54;19935;31
2022/05/30 00:41:21;;;;;;;;;;;12.10;99.90;;;;;;2602980;54;20069;31
2022/05/30 00:43:55;;;;;;;;;;;12.10;99.90;;;;;;2621353;47;19935;31
2022/05/30 00:46:32;;;;;;;;;;;12.00;99.90;;;;;;2619297;47;19934;31
2022/05/30 00:49:10;;;;;;;;;;;12.00;99.90;;;;;;2621337;47;19941;31
2022/05/30 00:51:45;;;;;;;;;;;11.90;99.90;;;;;;2620944;47;19954;31
2022/05/30 00:54:20;;;;;;;;;;;11.90;99.90;;;;;;2602618;54;19935;31
2022/05/30 00:56:57;;;;;;;;;;;11.90;99.90;;;;;;2602414;54;20669;31
2022/05/30 00:59:31;;;;;;;;;;;11.90;99.90;;;;;;2622101;46;19935;31
2022/05/30 01:02:07;;;;;;;;;;;11.80;99.90;;;;;;2622215;46;20684;31
2022/05/30 01:07:35;;;;;;;;;;;11.70;99.90;;;;;;2621974;46;19991;31
2022/05/30 01:10:13;;;;;;;;;;;11.70;99.90;;;;;;2621820;46;19989;31
2022/05/30 01:12:52;;;;;;;;;;;11.70;99.90;;;;;;2603346;54;20857;31
2022/05/30 01:15:27;;;;;;;;;;;11.70;99.90;;;;;;2603453;54;20790;31
2022/05/30 01:18:04;;;;;;;;;;;11.70;99.90;;;;;;2602827;54;19935;31
2022/05/30 01:20:43;;;;;;;;;;;11.70;99.90;;;;;;2602524;54;20773;31
2022/05/30 01:23:25;;;;;;;;;;;11.70;99.90;;;;;;2603346;54;19934;31
2022/05/30 01:26:05;;;;;;;;;;;11.70;99.90;;;;;;2603124;54;19934;31
2022/05/30 01:28:53;;;;;;;;;;;11.70;99.90;;;;;;2622000;46;19938;31
2022/05/30 01:31:32;;;;;;;;;;;11.70;99.90;;;;;;2603328;54;20737;31
2022/05/30 01:34:07;;;;;;;;;;;11.70;99.90;;;;;;2603289;54;20748;31
2022/05/30 01:36:42;;;;;;;;;;;11.70;99.90;;;;;;2603489;54;20680;31
2022/05/30 01:39:17;;;;;;;;;;;11.70;99.90;;;;;;2603207;54;20774;31
2022/05/30 01:41:55;;;;;;;;;;;11.70;99.90;;;;;;2621844;46;19987;31
2022/05/30 01:44:30;;;;;;;;;;;11.70;99.90;;;;;;2621708;46;19934;31
2022/05/30 01:47:08;;;;;;;;;;;11.70;99.90;;;;;;2603471;54;21456;31
2022/05/30 01:49:46;;;;;;;;;;;11.70;99.90;;;;;;2603467;54;19935;31
2022/05/30 01:52:21;;;;;;;;;;;11.80;99.90;;;;;;2603413;54;19942;31
2022/05/30 01:54:57;;;;;;;;;;;11.80;99.90;;;;;;2603559;54;19934;31
2022/05/30 01:57:51;;;;;;;;;;;11.80;99.90;;;;;;2602970;54;19962;31
2022/05/30 02:00:51;;;;;;;;;;;11.80;99.90;;;;;;2603203;54;19934;31
2022/05/30 02:03:30;;;;;;;;;;;11.80;99.90;;;;;;2603238;54;19960;31
2022/05/30 02:06:05;;;;;;;;;;;11.80;99.90;;;;;;2603221;54;20755;31
2022/05/30 02:08:39;;;;;;;;;;;11.80;99.90;;;;;;2603136;54;19941;31
2022/05/30 02:11:13;;;;;;;;;;;11.70;99.90;;;;;;2603475;54;19958;31
2022/05/30 02:13:51;;;;;;;;;;;11.70;99.90;;;;;;2603501;54;19956;31
2022/05/30 02:19:28;;;;;;;;;;;11.70;99.90;;;;;;2603256;54;20021;31
2022/05/30 02:22:07;;;;;;;;;;;11.70;99.90;;;;;;2720266;39;21439;31
2022/05/30 02:24:42;;;;;;;;;;;11.70;99.90;;;;;;2603210;54;19934;31
2022/05/30 02:27:19;;;;;;;;;;;11.70;99.90;;;;;;2602321;54;20464;31
2022/05/30 02:29:54;;;;;;;;;;;11.80;99.90;;;;;;2618801;46;20732;31
2022/05/30 02:32:31;;;;;;;;;;;11.80;99.90;;;;;;2602376;54;20026;31
2022/05/30 02:38:02;;;;;;;;;;;11.80;99.90;;;;;;2603205;54;21078;31
2022/05/30 02:41:09;;;;;;;;;;;11.70;99.90;;;;;;2603324;54;19935;31
2022/05/30 02:44:04;;;;;;;;;;;11.80;99.90;;;;;;2602979;54;19935;31
2022/05/30 02:46:38;;;;;;;;;;;11.70;99.90;;;;;;2621518;46;21142;31
2022/05/30 02:49:12;;;;;;;;;;;11.70;99.90;;;;;;2621464;46;19942;31
2022/05/30 02:51:49;;;;;;;;;;;11.80;99.90;;;;;;2621406;46;19974;31
2022/05/30 02:54:27;;;;;;;;;;;11.80;99.90;;;;;;2602347;54;19959;31
2022/05/30 02:57:09;;;;;;;;;;;11.80;99.90;;;;;;2602498;54;21225;31
2022/05/30 02:59:47;;;;;;;;;;;11.80;99.90;;;;;;2602964;54;20755;31
2022/05/30 03:02:27;;;;;;;;;;;11.80;99.90;;;;;;2700683;39;20442;31
2022/05/30 03:05:03;;;;;;;;;;;11.80;99.90;;;;;;2621698;46;20004;31
2022/05/30 03:07:38;;;;;;;;;;;11.70;99.90;;;;;;2602442;54;19991;31
2022/05/30 03:10:33;;;;;;;;;;;11.70;99.90;;;;;;2603017;54;19970;31
2022/05/30 03:13:09;;;;;;;;;;;11.70;99.90;;;;;;2603173;54;21473;31
2022/05/30 03:15:44;;;;;;;;;;;11.70;99.90;;;;;;2603005;54;20684;31
2022/05/30 03:18:17;;;;;;;;;;;11.70;99.90;;;;;;2719958;39;21084;31
2022/05/30 03:20:52;;;;;;;;;;;11.70;99.90;;;;;;2602985;54;20021;31
2022/05/30 03:23:28;;;;;;;;;;;11.70;99.90;;;;;;2602142;54;19965;31
2022/05/30 03:26:36;;;;;;;;;;;11.70;99.90;;;;;;2602882;54;20789;31
2022/05/30 03:29:11;;;;;;;;;;;11.60;99.90;;;;;;2602130;54;19989;31
2022/05/30 03:31:49;;;;;;;;;;;11.60;99.90;;;;;;2602837;54;19943;31
2022/05/30 03:34:26;;;;;;;;;;;11.50;99.90;;;;;;2621613;46;19934;31
2022/05/30 03:37:03;;;;;;;;;;;11.60;99.90;;;;;;2602892;54;20773;31
2022/05/30 03:39:52;;;;;;;;;;;11.50;99.90;;;;;;2621284;46;19934;31
2022/05/30 03:42:48;;;;;;;;;;;11.60;99.90;;;;;;2603200;54;20731;31
2022/05/30 03:45:30;;;;;;;;;;;11.50;99.90;;;;;;2603047;54;20000;31
2022/05/30 03:48:08;;;;;;;;;;;11.50;99.90;;;;;;2603035;54;21689;31
2022/05/30 03:50:43;;;;;;;;;;;11.50;99.90;;;;;;2621311;46;19941;31
2022/05/30 03:53:17;;;;;;;;;;;11.50;99.90;;;;;;2621525;46;20719;31
2022/05/30 03:55:53;;;;;;;;;;;11.50;99.90;;;;;;2602837;54;20022;31
2022/05/30 03:58:35;;;;;;;;;;;11.60;99.90;;;;;;2621348;46;20044;31
2022/05/30 04:01:12;;;;;;;;;;;11.60;99.90;;;;;;2602931;54;20768;31
2022/05/30 04:04:00;;;;;;;;;;;11.60;99.90;;;;;;2602213;54;19969;31
2022/05/30 04:06:35;;;;;;;;;;;11.60;99.90;;;;;;2603104;54;20750;31
2022/05/30 04:09:10;;;;;;;;;;;11.60;99.90;;;;;;2602744;54;20759;31
2022/05/30 04:12:04;;;;;;;;;;;11.60;99.90;;;;;;2602951;54;19942;31
2022/05/30 04:15:02;;;;;;;;;;;11.60;99.90;;;;;;2603115;54;19942;31
2022/05/30 04:17:37;;;;;;;;;;;11.70;99.90;;;;;;2602040;54;21843;31
2022/05/30 04:20:12;;;;;;;;;;;11.70;99.90;;;;;;2701465;39;22214;31
2022/05/30 04:22:45;;;;;;;;;;;11.70;99.90;;;;;;2621091;47;21150;31
2022/05/30 04:25:32;;;;;;;;;;;11.70;99.90;;;;;;2602950;54;20785;31
2022/05/30 04:28:08;;;;;;;;;;;11.70;99.90;;;;;;2602858;54;19941;31
2022/05/30 04:30:51;;;;;;;;;;;11.70;99.90;;;;;;2605536;47;20069;31
2022/05/30 04:33:27;;;;;;;;;;;11.80;99.90;;;;;;2603635;54;19934;31
2022/05/30 04:36:03;;;;;;;;;;;11.80;99.90;;;;;;2602745;54;19941;31
2022/05/30 04:38:38;;;;;;;;;;;11.80;99.90;;;;;;2603845;54;20754;31
2022/05/30 04:41:33;;;;;;;;;;;11.90;99.90;;;;;;2603495;54;20839;31
2022/05/30 04:44:27;;;;;;;;;;;11.90;99.90;;;;;;2603490;54;19996;31
2022/05/30 04:47:31;;;;;;;;;;;11.90;99.90;;;;;;2603553;54;19935;31
2022/05/30 04:50:06;;;;;;;;;;;12.00;99.90;;;;;;2603705;54;20016;31
2022/05/30 04:52:43;;;;;;;;;;;12.00;99.90;;;;;;2603428;54;20798;31
2022/05/30 04:55:39;;;;;;;;;;;12.00;99.90;;;;;;2603418;54;19977;31
2022/05/30 04:58:17;;;;;;;;;;;12.00;99.90;;;;;;2603524;54;19961;31
2022/05/30 05:00:58;;;;;;;;;;;12.10;99.90;;;;;;2603334;54;19942;31
2022/05/30 05:03:37;;;;;;;;;;;12.00;99.90;;;;;;2603614;54;19943;31
2022/05/30 05:06:12;;;;;;;;;;;12.00;99.90;;;;;;2602747;54;19991;31
2022/05/30 05:08:47;;;;;;;;;;;12.00;99.90;;;;;;2602627;54;19943;31
2022/05/30 05:11:41;;;;;;;;;;;12.10;99.90;;;;;;2603311;54;19934;31
2022/05/30 05:14:38;;;;;;;;;;;12.10;99.90;;;;;;2603233;54;19954;31
2022/05/30 05:17:36;;;;;;;;;;;12.10;99.90;;;;;;2603335;54;20846;31
2022/05/30 05:20:16;;;;;;;;;;;12.10;99.90;;;;;;2701824;39;21286;31
2022/05/30 05:22:50;;;;;;;;;;;12.10;99.90;;;;;;2608630;46;19935;31
2022/05/30 05:25:39;;;;;;;;;;;12.20;99.90;;;;;;2603379;54;19941;31
2022/05/30 05:28:52;;;;;;;;;;;12.20;99.90;;;;;;2603315;54;19942;31
2022/05/30 05:31:28;;;;;;;;;;;12.20;99.90;;;;;;2603220;54;20759;31
2022/05/30 05:34:04;;;;;;;;;;;12.20;99.90;;;;;;2603364;54;20017;31
2022/05/30 05:36:41;;;;;;;;;;;12.10;99.90;;;;;;2603225;54;20672;31
2022/05/30 05:39:23;;;;;;;;;;;12.20;99.90;;;;;;2612796;46;20753;31
2022/05/30 05:42:00;;;;;;;;;;;12.20;99.90;;;;;;2602877;54;19935;31
2022/05/30 05:44:34;;;;;;;;;;;12.20;99.90;;;;;;2622033;46;19973;31
2022/05/30 05:47:09;;;;;;;;;;;12.30;99.90;;;;;;2603320;54;19942;31
2022/05/30 05:49:45;;;;;;;;;;;12.40;99.90;;;;;;2603155;54;19941;31
2022/05/30 05:52:20;;;;;;;;;;;12.50;99.90;;;;;;2621694;46;20676;31
2022/05/30 05:54:59;;;;;;;;;;;12.60;99.90;;;;;;2603418;54;19935;31
2022/05/30 05:57:36;;;;;;;;;;;12.70;99.90;;;;;;2603356;54;20700;31
2022/05/30 06:00:11;;;;;;;;;;;12.80;99.90;;;;;;2603204;54;20763;31
2022/05/30 06:02:52;;;;;;;;;;;12.90;99.90;;;;;;2603217;54;19938;31
2022/05/30 06:05:42;;;;;;;;;;;13.00;99.90;;;;;;2603480;54;19938;31
2022/05/30 06:08:37;;;;;;;;;;;13.20;99.90;;;;;;2603400;54;20767;31
2022/05/30 06:11:32;;;;;;;;;;;13.40;99.90;;;;;;2621983;46;19934;31
2022/05/30 06:14:08;;;;;;;;;;;13.60;99.90;;;;;;2622050;46;19934;31
2022/05/30 06:16:45;;;;;;;;;;;13.80;99.90;;;;;;2603138;54;20733;31
2022/05/30 06:19:23;;;;;;;;;;;13.80;99.90;;;;;;2603280;54;19935;31
2022/05/30 06:21:58;;;;;;;;;;;13.90;99.90;;;;;;2603269;54;19935;31
2022/05/30 06:24:34;;;;;;;;;;;13.90;99.90;;;;;;2603313;54;19941;31
2022/05/30 06:27:43;;;;;;;;;;;13.90;99.90;;;;;;2603343;54;19993;31
2022/05/30 06:30:38;;;;;;;;;;;13.90;99.90;;;;;;2621849;46;20085;31
2022/05/30 06:33:13;;;;;;;;;;;13.80;99.90;;;;;;2603385;54;19942;31
2022/05/30 06:36:01;;;;;;;;;;;13.80;99.90;;;;;;2603386;54;20698;31
2022/05/30 06:38:36;;;;;;;;;;;13.70;99.90;;;;;;2621254;46;20005;31
2022/05/30 06:41:20;;;;;;;;;;;13.70;99.90;;;;;;2621848;46;19941;31
2022/05/30 06:44:04;;;;;;;;;;;13.60;99.90;;;;;;2720221;39;20407;31
2022/05/30 06:46:57;;;;;;;;;;;13.50;99.90;;;;;;2603562;54;19942;31
2022/05/30 06:50:12;;;;;;;;;;;13.50;99.90;;;;;;2603209;54;20778;31
2022/05/30 06:52:49;;;;;;;;;;;13.50;99.90;;;;;;2621699;46;19941;31
2022/05/30 06:55:25;;;;;;;;;;;13.50;99.90;;;;;;2612288;46;20795;31
2022/05/30 07:00:55;;;;;;;;;;;13.40;99.90;;;;;;2603352;54;20784;31
2022/05/30 07:03:41;;;;;;;;;;;13.40;99.90;;;;;;2603309;54;20639;31
2022/05/30 07:06:35;;;;;;;;;;;13.40;99.90;;;;;;2603419;54;20686;31
2022/05/30 07:09:21;;;;;;;;;;;13.30;99.90;;;;;;2603191;54;19961;31
2022/05/30 07:12:27;;;;;;;;;;;13.30;99.90;;;;;;2603328;54;20664;31
2022/05/30 07:15:08;;;;;;;;;;;13.30;99.90;;;;;;2602352;54;19942;31
2022/05/30 07:17:59;;;;;;;;;;;13.30;99.90;;;;;;2603419;54;19973;31
2022/05/30 07:20:36;;;;;;;;;;;13.30;99.90;;;;;;2603028;54;20747;31
2022/05/30 07:23:34;;;;;;;;;;;13.30;99.90;;;;;;2603358;54;19937;31
2022/05/30 07:26:30;;;;;;;;;;;13.30;99.90;;;;;;2603255;54;19942;31
2022/05/30 07:29:13;;;;;;;;;;;13.30;99.90;;;;;;2603345;54;19941;31
2022/05/30 07:32:07;;;;;;;;;;;13.30;99.90;;;;;;2603219;54;19981;31
2022/05/30 07:35:02;;;;;;;;;;;13.30;99.90;;;;;;2603091;54;20060;31
2022/05/30 07:38:10;;;;;;;;;;;13.30;99.90;;;;;;2602902;54;20718;31
2022/05/30 07:41:05;;;;;;;;;;;13.30;99.90;;;;;;2603187;54;20745;31
2022/05/30 07:44:12;;;;;;;;;;;13.40;99.90;;;;;;2602873;54;19961;31
2022/05/30 07:47:08;;;;;;;;;;;13.30;99.90;;;;;;2603119;54;19985;31
2022/05/30 07:50:05;;;;;;;;;;;13.30;99.90;;;;;;2603030;54;20658;31
2022/05/30 07:53:06;;;;;;;;;;;13.30;99.90;;;;;;2602979;54;19996;31
2022/05/30 07:55:47;;;;;;;;;;;13.40;99.90;;;;;;2603101;54;19935;31
2022/05/30 07:58:26;;;;;;;;;;;13.40;99.90;;;;;;2603076;54;20746;31
2022/05/30 08:01:03;;;;;;;;;;;13.50;99.90;;;;;;2602930;54;20755;31
2022/05/30 08:03:40;;;;;;;;;;;13.40;99.90;;;;;;2603083;54;20666;31
2022/05/30 08:06:34;;;;;;;;;;;13.40;99.90;;;;;;2603066;54;19941;31
2022/05/30 08:09:42;;;;;;;;;;;13.40;99.90;;;;;;2602795;54;20803;31
2022/05/30 08:12:19;;;;;;;;;;;13.40;99.90;;;;;;2603021;54;19934;31
2022/05/30 08:15:06;;;;;;;;;;;13.40;99.90;;;;;;2621726;47;20818;31
2022/05/30 08:18:03;;;;;;;;;;;13.40;99.90;;;;;;2603037;54;20013;31
2022/05/30 08:20:38;;;;;;;;;;;13.30;99.90;;;;;;2621409;47;19941;31
2022/05/30 08:23:17;;;;;;;;;;;13.30;99.90;;;;;;2621471;47;19943;31
2022/05/30 08:25:56;;;;;;;;;;;13.30;99.90;;;;;;2602815;54;19935;31
2022/05/30 08:28:33;;;;;;;;;;;13.30;99.90;;;;;;2603060;54;19947;31
2022/05/30 08:31:09;;;;;;;;;;;13.30;99.90;;;;;;2603127;54;19946;31
2022/05/30 08:33:53;;;;;;;;;;;13.40;99.90;;;;;;2602974;54;19942;31
2022/05/30 08:36:42;;;;;;;;;;;13.40;99.90;;;;;;2603028;54;19942;31
2022/05/30 08:42:08;;;;;;;;;;;13.60;99.90;;;;;;2621155;47;19941;31
2022/05/30 08:45:02;;;;;;;;;;;13.60;99.90;;;;;;2602964;54;20751;31
2022/05/30 08:47:57;;;;;;;;;;;13.70;99.90;;;;;;2603021;54;19966;31
2022/05/30 08:50:43;;;;;;;;;;;13.90;99.90;;;;;;2602954;54;20859;31
2022/05/30 08:53:30;;;;;;;;;;;14.10;99.90;;;;;;2621113;47;19941;31
2022/05/30 08:56:09;;;;;;;;;;;14.30;99.90;;;;;;2602788;54;20739;31
2022/05/30 08:59:12;;;;;;;;;;;14.50;99.90;;;;;;2602928;54;20768;31
2022/05/30 09:01:49;;;;;;;;;;;14.80;99.90;;;;;;2602770;54;19938;31
2022/05/30 09:04:44;;;;;;;;;;;15.10;99.90;;;;;;2602656;54;19935;31
2022/05/30 09:07:25;;;;;;;;;;;15.50;99.90;;;;;;2621351;47;19946;31
2022/05/30 09:10:05;;;;;;;;;;;15.90;99.90;;;;;;2602736;54;19934;31
2022/05/30 09:12:44;;;;;;;;;;;16.30;99.90;;;;;;2621423;47;19935;31
2022/05/30 09:15:39;;;;;;;;;;;16.40;99.90;;;;;;2602959;54;19981;31
2022/05/30 09:18:16;;;;;;;;;;;16.60;99.90;;;;;;2603449;54;20635;31
2022/05/30 09:20:54;;;;;;;;;;;16.90;99.90;;;;;;2603646;54;20665;31
2022/05/30 09:23:34;;;;;;;;;;;17.20;99.90;;;;;;2621813;46;19935;31
2022/05/30 09:26:11;;;;;;;;;;;17.40;99.90;;;;;;2603566;54;20736;31
2022/05/30 09:28:46;;;;;;;;;;;17.80;99.90;;;;;;2603777;54;19939;31
2022/05/30 09:31:45;;;;;;;;;;;18.10;99.90;;;;;;2603723;54;20831;31
2022/05/30 09:34:30;;;;;;;;;;;18.30;99.90;;;;;;2622264;46;19942;31
2022/05/30 09:37:32;;;;;;;;;;;18.40;99.90;;;;;;2603850;54;20719;31
2022/05/30 09:40:23;;;;;;;;;;;18.30;99.90;;;;;;2603709;54;19942;31
2022/05/30 09:43:30;;;;;;;;;;;18.10;99.90;;;;;;2603314;54;19934;31
2022/05/30 09:49:41;;;;;;;;;;;18.30;99.90;;;;;;2603713;54;20731;31
2022/05/30 09:52:30;;;;;;;;;;;18.50;99.90;;;;;;2603616;54;20679;31
2022/05/30 09:57:46;;;;;;;;;;;18.90;99.90;;;;;;2622064;46;20661;31
2022/05/30 10:00:40;;;;;;;;;;;19.00;99.90;;;;;;2622071;46;19962;31
2022/05/30 10:03:15;;;;;;;;;;;19.00;99.90;;;;;;2622029;46;19990;31
2022/05/30 10:05:54;;;;;;;;;;;18.70;99.90;;;;;;2602779;54;21093;31
2022/05/30 10:08:30;;;;;;;;;;;18.40;99.90;;;;;;2603677;54;20763;31
2022/05/30 10:11:12;;;;;;;;;;;18.60;99.90;;;;;;2603615;54;19942;31
2022/05/30 10:13:53;;;;;;;;;;;18.60;99.90;;;;;;2621809;46;19934;31
2022/05/30 10:16:48;;;;;;;;;;;18.50;99.90;;;;;;2603318;54;20001;31
2022/05/30 10:19:27;;;;;;;;;;;18.40;99.90;;;;;;2603368;54;19941;31
2022/05/30 10:28:27;;;;;;;;;;;18.10;99.90;;;;;;2603165;54;20821;31
2022/05/30 10:31:13;;;;;;;;;;;17.80;99.90;;;;;;2603651;54;22245;31
2022/05/30 10:34:12;;;;;;;;;;;17.70;99.90;;;;;;2621807;46;19947;31
2022/05/30 10:37:04;;;;;;;;;;;17.80;99.90;;;;;;2622007;46;19935;31
2022/05/30 10:39:47;;;;;;;;;;;17.80;99.90;;;;;;2603399;54;20745;31
2022/05/30 10:42:27;;;;;;;;;;;17.90;99.90;;;;;;2603337;54;20692;31
2022/05/30 10:45:10;;;;;;;;;;;17.80;99.90;;;;;;2621922;46;19934;31
2022/05/30 10:47:48;;;;;;;;;;;17.80;99.90;;;;;;2603314;54;20657;31
2022/05/30 10:50:42;;;;;;;;;;;18.10;99.90;;;;;;2603190;54;20790;31
2022/05/30 10:53:26;;;;;;;;;;;18.30;99.90;;;;;;2621568;46;22241;31
2022/05/30 10:56:23;;;;;;;;;;;18.60;99.90;;;;;;2603300;54;20752;31
2022/05/30 10:59:00;;;;;;;;;;;18.80;99.90;;;;;;2621830;46;20815;31
2022/05/30 11:01:38;;;;;;;;;;;19.20;99.90;;;;;;2720206;39;21519;31
2022/05/30 11:04:51;;;;;;;;;;;19.40;99.90;;;;;;2603284;54;19934;31
2022/05/30 11:07:31;;;;;;;;;;;19.80;99.90;;;;;;2603959;46;19941;31
2022/05/30 11:10:10;;;;;;;;;;;20.00;99.90;;;;;;2603140;54;20744;31
2022/05/30 11:12:44;;;;;;;;;;;20.20;99.90;;;;;;2621944;46;19935;31
2022/05/30 11:15:22;;;;;;;;;;;20.20;99.90;;;;;;2603355;54;20752;31
2022/05/30 11:18:34;;;;;;;;;;;20.20;99.90;;;;;;2603503;54;19941;31
2022/05/30 11:21:45;;;;;;;;;;;20.30;99.90;;;;;;2603329;54;20822;31
2022/05/30 11:24:20;;;;;;;;;;;20.40;99.90;;;;;;2621356;46;19990;31
2022/05/30 11:26:58;;;;;;;;;;;20.50;99.90;;;;;;2621690;46;19941;31
2022/05/30 11:29:46;;;;;;;;;;;20.60;99.90;;;;;;2603170;54;19985;31
2022/05/30 11:32:30;;;;;;;;;;;20.60;99.90;;;;;;2603237;54;19934;31
2022/05/30 11:35:06;;;;;;;;;;;20.70;99.90;;;;;;2621903;46;20708;31
2022/05/30 11:37:47;;;;;;;;;;;20.70;99.90;;;;;;2603323;54;19950;31
2022/05/30 11:40:22;;;;;;;;;;;20.60;99.90;;;;;;2612529;46;19935;31
2022/05/30 11:43:00;;;;;;;;;;;20.60;99.90;;;;;;2602499;54;19935;31
2022/05/30 11:45:41;;;;;;;;;;;20.50;99.40;;;;;;2621957;46;19935;31
2022/05/30 11:48:24;;;;;;;;;;;20.40;99.70;;;;;;2602990;54;19935;31
2022/05/30 11:51:08;;;;;;;;;;;20.30;99.90;;;;;;2602391;54;20532;31
2022/05/30 11:53:52;;;;;;;;;;;20.20;99.90;;;;;;2602231;54;20803;31
2022/05/30 11:56:29;;;;;;;;;;;20.20;98.00;;;;;;2602260;54;20546;31
2022/05/30 11:59:09;;;;;;;;;;;20.00;97.40;;;;;;2621819;46;19935;31
2022/05/30 12:01:44;;;;;;;;;;;19.80;96.50;;;;;;2603147;54;20641;31
2022/05/30 12:04:29;;;;;;;;;;;19.90;96.30;;;;;;2602964;54;19941;31
2022/05/30 12:07:21;;;;;;;;;;;19.90;97.60;;;;;;2621392;46;19943;31
2022/05/30 12:10:02;;;;;;;;;;;19.90;96.70;;;;;;2602687;54;19946;31
2022/05/30 12:12:45;;;;;;;;;;;19.70;98.10;;;;;;2621550;46;20694;31
2022/05/30 12:15:24;;;;;;;;;;;19.70;96.30;;;;;;2602922;54;20730;31
2022/05/30 12:23:52;;;;;;;;;;;19.60;97.40;;;;;;2621238;47;20676;31
2022/05/30 12:26:42;;;;;;;;;;;19.70;98.10;;;;;;2602872;54;19993;31
2022/05/30 12:29:28;;;;;;;;;;;19.80;98.70;;;;;;2602939;54;19939;31
2022/05/30 12:32:36;;;;;;;;;;;20.00;98.90;;;;;;2602755;54;19934;31
2022/05/30 12:37:46;;;;;;;;;;;20.20;96.70;;;;;;2602995;54;20823;31
2022/05/30 12:40:33;;;;;;;;;;;20.20;97.20;;;;;;2602751;54;19961;31
2022/05/30 12:43:14;;;;;;;;;;;20.10;97.10;;;;;;2621203;47;20836;31
2022/05/30 12:45:52;;;;;;;;;;;20.10;97.50;;;;;;2621354;47;19934;31
2022/05/30 12:48:28;;;;;;;;;;;20.10;95.30;;;;;;2602694;54;19946;31
2022/05/30 12:51:06;;;;;;;;;;;20.00;95.30;;;;;;2602378;54;19966;31
2022/05/30 12:54:04;;;;;;;;;;;20.00;95.10;;;;;;2603876;54;19934;31
2022/05/30 12:57:04;;;;;;;;;;;19.80;95.00;;;;;;2702055;39;20388;31
2022/05/30 12:59:53;;;;;;;;;;;19.60;95.20;;;;;;2617145;46;20651;31
2022/05/30 13:02:43;;;;;;;;;;;19.40;94.90;;;;;;2621955;46;20791;31
2022/05/30 13:05:25;;;;;;;;;;;19.40;94.20;;;;;;2603871;54;19935;31
2022/05/30 13:07:59;;;;;;;;;;;19.20;94.30;;;;;;2603481;54;19938;31
2022/05/30 13:10:39;;;;;;;;;;;19.20;95.30;;;;;;2702088;39;20503;31
2022/05/30 13:13:14;;;;;;;;;;;19.20;95.00;;;;;;2622523;46;19935;31
2022/05/30 13:15:48;;;;;;;;;;;19.40;95.90;;;;;;2603607;54;22269;31
2022/05/30 13:18:27;;;;;;;;;;;19.50;94.60;;;;;;2603615;54;19935;31
2022/05/30 13:21:06;;;;;;;;;;;19.40;94.00;;;;;;2603935;54;20724;31
2022/05/30 13:23:40;;;;;;;;;;;19.20;94.00;;;;;;2621930;46;19934;31
2022/05/30 13:26:16;;;;;;;;;;;19.20;94.80;;;;;;2621736;46;19941;31
2022/05/30 13:28:52;;;;;;;;;;;19.20;95.60;;;;;;2773495;31;20532;31
2022/05/30 13:31:27;;;;;;;;;;;19.10;94.10;;;;;;2603422;54;20470;31
2022/05/30 13:34:04;;;;;;;;;;;19.10;94.00;;;;;;2603203;54;19935;31
2022/05/30 13:36:44;;;;;;;;;;;19.00;97.30;;;;;;2603543;54;20001;31
2022/05/30 13:39:20;;;;;;;;;;;19.10;96.00;;;;;;2603348;54;19955;31
2022/05/30 13:41:56;;;;;;;;;;;19.20;95.90;;;;;;2621973;46;20016;31
2022/05/30 13:44:36;;;;;;;;;;;19.20;95.60;;;;;;2603631;54;22287;31
2022/05/30 13:47:14;;;;;;;;;;;19.10;95.10;;;;;;2603578;54;20769;31
2022/05/30 13:49:54;;;;;;;;;;;19.10;95.20;;;;;;2622047;46;20018;31
2022/05/30 13:52:32;;;;;;;;;;;19.00;94.90;;;;;;2622150;46;19959;31
2022/05/30 13:55:10;;;;;;;;;;;19.00;94.50;;;;;;2602697;54;19941;31
2022/05/30 13:57:45;;;;;;;;;;;19.00;95.00;;;;;;2602781;54;19934;31
2022/05/30 14:00:22;;;;;;;;;;;19.00;95.60;;;;;;2720665;39;20460;31
2022/05/30 14:02:56;;;;;;;;;;;19.00;95.70;;;;;;2720388;39;20391;31
2022/05/30 14:05:35;;;;;;;;;;;18.90;95.80;;;;;;2603240;54;20677;31
2022/05/30 14:08:12;;;;;;;;;;;18.80;96.70;;;;;;2603278;54;19956;31
2022/05/30 14:10:51;;;;;;;;;;;18.80;96.60;;;;;;2602565;54;19939;31
2022/05/30 14:13:35;;;;;;;;;;;18.90;96.70;;;;;;2602328;54;20701;31
2022/05/30 14:16:29;;;;;;;;;;;18.90;96.90;;;;;;2621711;46;19942;31
2022/05/30 14:19:07;;;;;;;;;;;19.00;97.50;;;;;;2621935;46;19935;31
2022/05/30 14:21:42;;;;;;;;;;;18.80;98.70;;;;;;2603273;54;19935;31
2022/05/30 14:24:24;;;;;;;;;;;18.50;99.40;;;;;;2606714;46;19993;31
2022/05/30 14:27:04;;;;;;;;;;;18.10;99.90;;;;;;2603322;54;20668;31
2022/05/30 14:29:40;;;;;;;;;;;17.80;99.90;;;;;;2622309;46;21203;31
2022/05/30 14:32:30;;;;;;;;;;;17.50;99.90;;;;;;2621771;46;19957;31
2022/05/30 14:35:07;;;;;;;;;;;17.40;99.90;;;;;;2603291;54;19942;31
2022/05/30 14:37:43;;;;;;;;;;;17.20;99.90;;;;;;2603348;54;19935;31
2022/05/30 14:40:17;;;;;;;;;;;17.10;99.90;;;;;;2603085;54;20006;31
2022/05/30 14:42:55;;;;;;;;;;;17.00;99.90;;;;;;2621776;46;20730;31
2022/05/30 14:45:34;;;;;;;;;;;16.90;99.90;;;;;;2603239;54;19934;31
2022/05/30 14:48:11;;;;;;;;;;;17.00;99.90;;;;;;2621744;46;19942;31
2022/05/30 14:50:47;;;;;;;;;;;17.10;99.90;;;;;;2603374;54;20740;31
2022/05/30 14:53:24;;;;;;;;;;;17.20;99.90;;;;;;2603169;54;19986;31
2022/05/30 14:55:58;;;;;;;;;;;17.30;99.90;;;;;;2603076;54;19943;31
2022/05/30 14:58:36;;;;;;;;;;;17.30;99.90;;;;;;2603193;54;20828;31
2022/05/30 15:01:12;;;;;;;;;;;17.40;99.90;;;;;;2603023;54;19946;31
2022/05/30 15:06:37;;;;;;;;;;;17.50;99.90;;;;;;2603111;54;20049;31
2022/05/30 15:09:12;;;;;;;;;;;17.50;99.90;;;;;;2603170;54;19935;31
2022/05/30 15:11:49;;;;;;;;;;;17.50;99.90;;;;;;2603227;54;20762;31
2022/05/30 15:14:23;;;;;;;;;;;17.50;99.90;;;;;;2602665;54;20740;31
2022/05/30 15:16:59;;;;;;;;;;;17.50;99.90;;;;;;2621896;46;19935;31
2022/05/30 15:19:34;;;;;;;;;;;17.40;99.90;;;;;;2621812;46;20734;31
2022/05/30 15:22:09;;;;;;;;;;;17.30;99.90;;;;;;2621663;46;19942;31
2022/05/30 15:24:46;;;;;;;;;;;17.20;99.90;;;;;;2602930;54;19951;31
2022/05/30 15:27:26;;;;;;;;;;;17.20;99.90;;;;;;2621749;46;19935;31
2022/05/30 15:30:01;;;;;;;;;;;17.20;99.90;;;;;;2621937;46;20776;31
2022/05/30 15:32:40;;;;;;;;;;;17.10;99.90;;;;;;2603304;54;20763;31
2022/05/30 15:35:18;;;;;;;;;;;17.10;99.90;;;;;;2603043;54;19946;31
2022/05/30 15:37:53;;;;;;;;;;;17.10;99.90;;;;;;2603250;54;20750;31
2022/05/30 15:40:27;;;;;;;;;;;17.10;99.90;;;;;;2603279;54;19946;31
2022/05/30 15:43:01;;;;;;;;;;;17.10;99.90;;;;;;2621546;46;19934;31
2022/05/30 15:45:37;;;;;;;;;;;17.10;99.90;;;;;;2602788;54;19935;31
2022/05/30 15:48:14;;;;;;;;;;;17.10;99.90;;;;;;2603340;54;19934;31
2022/05/30 15:50:49;;;;;;;;;;;17.10;99.90;;;;;;2720295;39;20329;31
2022/05/30 15:59:18;;;;;;;;;;;17.10;99.90;;;;;;2603000;54;19934;31
2022/05/30 16:01:52;;;;;;;;;;;17.10;99.90;;;;;;2603298;54;19935;31
2022/05/30 16:04:29;;;;;;;;;;;17.10;99.90;;;;;;2603025;54;19935;31
2022/05/30 16:07:04;;;;;;;;;;;17.00;99.90;;;;;;2621604;46;20075;31
2022/05/30 16:09:39;;;;;;;;;;;17.00;99.90;;;;;;2603075;54;19941;31
2022/05/30 16:12:16;;;;;;;;;;;17.10;99.90;;;;;;2621906;46;20650;31
2022/05/30 16:14:51;;;;;;;;;;;17.10;99.90;;;;;;2603018;54;19957;31
2022/05/30 16:17:29;;;;;;;;;;;17.10;99.90;;;;;;2621763;46;21332;31
2022/05/30 16:20:14;;;;;;;;;;;17.00;99.90;;;;;;2603170;54;19941;31
2022/05/30 16:22:51;;;;;;;;;;;16.90;99.90;;;;;;2602976;54;19941;31
2022/05/30 16:25:28;;;;;;;;;;;16.70;99.90;;;;;;2602867;54;19942;31
2022/05/30 16:28:03;;;;;;;;;;;16.70;99.90;;;;;;2603523;54;20724;31
2022/05/30 16:30:39;;;;;;;;;;;16.70;99.90;;;;;;2603932;54;19935;31
2022/05/30 16:33:16;;;;;;;;;;;16.70;99.90;;;;;;2603930;54;19935;31
2022/05/30 16:35:53;;;;;;;;;;;16.70;99.90;;;;;;2603551;54;19939;31
2022/05/30 16:38:28;;;;;;;;;;;16.70;99.90;;;;;;2720872;39;21246;31
2022/05/30 16:41:06;;;;;;;;;;;16.70;99.90;;;;;;2622401;46;19942;31